Current Conditions
Clear
Conditions



Pressure
1003.92 (hPa) - 29.65 (inHG)
Visibility

10.0 (km) - 6.2 (miles)
   Temperature
9  °C
48°F
5  °C
Dewpoint
76  %
 Humidity
   Wind Speed
4  kts
5  mph
8  km/h
2.2  m/s
   Wind Direction
 180°
Due South
   Airport Data
LKTB
Location Brno-Tuřany 61 km (37.91 mi)
Metar :LKTB 251000Z 18004KT CAVOK 09/05 Q1004 NOSIG
Tue 25th February 11:00 am
   Raw Metar Info
Raw METAR is the most common format in the world for the transmission of observational weather data. It is highly standardized through the International Civil Aviation Organization (ICAO), which allows it to be understood throughout most of the world.
   API Info
Data Provided by
https://www.checkwx.com/weather/LKTB
   © Info
CSS/SVG/PHP scripts were developed by weather34.com for use in the weather34 template © 2015-2020

Guide Info provided by Metar-Wikipedia